Main page
METAR-TAF:

METAR-TAF

Airports :

Pecos Municipal Airport

Pecos, Texas, United States

latitude: 31-22-56N, longitude: 103-30-38W, elevation: 2611 ft

Current weather observation

The report was made 22 minutes ago, at 16:55 UTC
Wind 17 mph from the East/Southeast with gusts up to 22 mph
Temperature 70°F
Humidity 43%
Pressure 30.25 in. Hg
Visibility: 10 miles
Clear sky

METAR: KPEQ 261655Z AUTO 11015G19KT 10SM CLR 21/08 A3025 RMK AO2 T02130084

Time: 12:17 (17:17 UTC)

Forecast

The report was made 1 hour and 49 minutes ago, at 15:28 UTC
Forecast valid from 26 at 15 UTC to 27 at 12 UTC
Wind 13 mph from the East
Visibility: 6 miles
Clear sky
From 26 at 2000 UTC
Wind 21 mph from the Southeast with gusts up to 29 mph
Visibility: 6 miles
Scattered clouds at a height of 4000 ft

TAF: KPEQ 261528Z 2615/2712 08011KT P6SM SKC FM262000 14018G25KT P6SM SCT040

Weather observations and forecasts of more than 4000 airports (METAR and TAF reports).

The available stations are represented by yellow and red dots on the map.

Hover mouse over dot to see the name of the station.

Then click to see weather observations and forecasts.

To change the map : click on the green buttons with a black cross to zoom in, on the green button with a dash to zoom out, or on the green arrows for adjacent maps.


METAR-TAF: